createdAt,value
2022-12-25T00:01:09.785Z,75.67
2022-12-25T00:03:52.650Z,74.77
2022-12-25T00:06:21.802Z,68.10
2022-12-25T00:08:51.240Z,63.13
2022-12-25T00:11:20.860Z,63.67
2022-12-25T00:13:49.979Z,63.17
2022-12-25T00:16:21.504Z,72.87
2022-12-25T00:18:52.279Z,66.70
2022-12-25T00:21:21.912Z,63.77
2022-12-25T00:23:55.534Z,60.43
2022-12-25T00:26:24.234Z,57.27
2022-12-25T00:28:54.406Z,63.27
2022-12-25T00:31:23.631Z,60.30
2022-12-25T00:33:54.613Z,70.87
2022-12-25T00:36:24.236Z,55.30
2022-12-25T00:38:53.339Z,56.97
2022-12-25T00:41:44.339Z,58.03
2022-12-25T00:44:14.772Z,49.87
2022-12-25T00:46:43.928Z,58.57
2022-12-25T00:49:14.584Z,59.23
2022-12-25T00:51:43.480Z,59.57
2022-12-25T00:54:12.192Z,46.77
2022-12-25T00:56:40.669Z,55.17
2022-12-25T00:59:09.624Z,47.87
2022-12-25T01:01:38.602Z,57.83
2022-12-25T01:04:08.787Z,45.63
2022-12-25T01:06:39.014Z,56.97
2022-12-25T01:09:25.776Z,55.93
2022-12-25T01:11:54.489Z,62.37
2022-12-25T01:14:23.271Z,60.20
2022-12-25T01:16:51.763Z,56.67
2022-12-25T01:19:20.597Z,63.73
2022-12-25T01:21:50.393Z,69.23
2022-12-25T01:24:19.116Z,58.23
2022-12-25T01:26:47.524Z,62.80
2022-12-25T01:29:16.204Z,49.07
2022-12-25T01:31:45.548Z,50.87
2022-12-25T01:34:14.319Z,51.07
2022-12-25T01:36:42.748Z,51.33
2022-12-25T01:39:12.795Z,47.27
2022-12-25T01:41:41.292Z,44.77
2022-12-25T01:44:48.542Z,48.60
2022-12-25T01:47:19.271Z,47.23
2022-12-25T01:49:50.924Z,40.27
2022-12-25T01:52:24.485Z,52.10
2022-12-25T01:54:58.690Z,43.97
2022-12-25T01:57:31.755Z,42.53
2022-12-25T02:00:01.952Z,40.53
2022-12-25T02:02:33.562Z,43.40
2022-12-25T02:05:08.203Z,46.70
2022-12-25T02:07:41.191Z,42.70
2022-12-25T02:10:14.052Z,41.43
2022-12-25T02:12:45.095Z,40.63
2022-12-25T02:15:16.656Z,39.40
2022-12-25T02:17:52.271Z,40.30
2022-12-25T02:20:38.285Z,37.40
2022-12-25T02:23:24.598Z,40.30
2022-12-25T02:26:12.035Z,34.87
2022-12-25T02:28:48.124Z,32.83
2022-12-25T02:31:23.433Z,37.70
2022-12-25T02:34:04.646Z,42.13
2022-12-25T02:36:39.180Z,37.57
2022-12-25T02:39:32.766Z,35.73
2022-12-25T02:42:07.098Z,32.10
2022-12-25T02:44:56.606Z,37.13
2022-12-25T02:47:44.123Z,36.90
2022-12-25T02:50:32.260Z,31.27
2022-12-25T02:53:20.921Z,42.00
2022-12-25T02:56:08.628Z,32.93
2022-12-25T02:58:58.183Z,36.10
2022-12-25T03:01:48.161Z,37.63
2022-12-25T03:04:39.891Z,40.13
2022-12-25T03:07:11.197Z,34.37
2022-12-25T03:09:59.933Z,49.37
2022-12-25T03:12:38.686Z,37.93
2022-12-25T03:15:27.445Z,37.47
2022-12-25T03:18:00.345Z,35.83
2022-12-25T03:20:48.616Z,39.60
2022-12-25T03:23:37.386Z,36.50
2022-12-25T03:26:24.762Z,37.93
2022-12-25T03:28:53.205Z,44.93
2022-12-25T03:31:28.384Z,36.13
2022-12-25T03:34:28.934Z,37.10
2022-12-25T03:37:28.945Z,36.50
2022-12-25T03:40:21.920Z,42.33
2022-12-25T03:43:13.996Z,48.73
2022-12-25T03:46:04.220Z,41.37
2022-12-25T03:48:54.283Z,38.73
2022-12-25T03:51:48.320Z,44.57
2022-12-25T03:54:38.458Z,37.83
2022-12-25T03:57:24.972Z,41.47
2022-12-25T04:00:11.205Z,42.20
2022-12-25T04:02:57.247Z,38.33
2022-12-25T04:05:43.546Z,46.13
2022-12-25T04:08:30.822Z,42.37
2022-12-25T04:11:18.975Z,41.47
2022-12-25T04:14:04.604Z,49.23
2022-12-25T04:16:50.591Z,49.23
2022-12-25T04:19:36.427Z,35.27
2022-12-25T04:22:22.604Z,40.33
2022-12-25T04:25:09.594Z,41.57
2022-12-25T04:27:55.690Z,44.83
2022-12-25T04:30:41.405Z,44.70
2022-12-25T04:33:27.555Z,47.03
2022-12-25T04:36:10.927Z,42.20
2022-12-25T04:38:41.149Z,46.10
2022-12-25T04:41:12.946Z,40.97
2022-12-25T04:43:41.953Z,50.07
2022-12-25T04:46:10.445Z,38.53
2022-12-25T04:48:39.758Z,41.43
2022-12-25T04:51:12.895Z,50.23
2022-12-25T04:53:41.682Z,33.83
2022-12-25T04:56:11.786Z,37.67
2022-12-25T04:58:40.819Z,39.23
2022-12-25T05:01:09.592Z,36.33
2022-12-25T05:03:38.969Z,34.87
2022-12-25T05:06:08.107Z,44.40
2022-12-25T05:08:37.756Z,43.97
2022-12-25T05:11:07.777Z,38.40
2022-12-25T05:13:38.435Z,45.00
2022-12-25T05:16:07.896Z,40.17
2022-12-25T05:18:36.760Z,30.70
2022-12-25T05:21:05.483Z,47.13
2022-12-25T05:23:35.178Z,41.93
2022-12-25T05:26:06.832Z,47.00
2022-12-25T05:28:37.136Z,40.90
2022-12-25T05:31:05.593Z,45.00
2022-12-25T05:33:34.576Z,39.17
2022-12-25T05:36:04.920Z,36.63
2022-12-25T05:38:34.017Z,41.13
2022-12-25T05:41:02.698Z,39.50
2022-12-25T05:43:31.475Z,35.50
2022-12-25T05:46:06.346Z,35.73
2022-12-25T05:48:36.051Z,35.30
2022-12-25T05:51:08.750Z,33.60
2022-12-25T05:53:37.940Z,35.10
2022-12-25T05:56:08.414Z,35.37
2022-12-25T05:58:40.385Z,31.63
2022-12-25T06:01:14.501Z,29.60
2022-12-25T06:03:43.390Z,29.50
2022-12-25T06:06:12.610Z,29.73
2022-12-25T06:08:41.857Z,37.23
2022-12-25T06:11:11.475Z,30.70
2022-12-25T06:13:40.265Z,32.40
2022-12-25T06:16:10.765Z,29.83
2022-12-25T06:18:43.781Z,27.10
2022-12-25T06:21:14.870Z,27.77
2022-12-25T06:23:44.601Z,30.20
2022-12-25T06:26:16.557Z,32.53
2022-12-25T06:28:46.240Z,30.73
2022-12-25T06:31:16.954Z,32.17
2022-12-25T06:33:47.550Z,27.27
2022-12-25T06:36:18.335Z,24.17
2022-12-25T06:38:47.636Z,25.70
2022-12-25T06:41:17.888Z,33.53
2022-12-25T06:43:49.729Z,24.43
2022-12-25T06:46:19.158Z,31.80
2022-12-25T06:48:50.156Z,27.00
2022-12-25T06:51:19.775Z,25.33
2022-12-25T06:53:48.848Z,28.17
2022-12-25T06:56:19.305Z,27.67
2022-12-25T06:58:50.207Z,24.23
2022-12-25T07:01:21.618Z,29.47
2022-12-25T07:03:54.075Z,26.00
2022-12-25T07:06:22.800Z,27.30
2022-12-25T07:08:51.732Z,34.17
2022-12-25T07:11:21.049Z,24.57
2022-12-25T07:13:49.856Z,30.97
2022-12-25T07:16:18.394Z,37.67
2022-12-25T07:18:47.490Z,30.43
2022-12-25T07:21:20.961Z,24.47
2022-12-25T07:23:51.010Z,32.37
2022-12-25T07:26:19.501Z,28.27
2022-12-25T07:28:48.275Z,23.63
2022-12-25T07:31:18.338Z,34.13
2022-12-25T07:33:47.123Z,28.40
2022-12-25T07:36:17.509Z,32.60
2022-12-25T07:38:50.083Z,32.73
2022-12-25T07:41:18.989Z,27.83
2022-12-25T07:43:51.175Z,24.60
2022-12-25T07:46:20.144Z,32.03
2022-12-25T07:48:49.073Z,33.70
2022-12-25T07:51:19.175Z,27.37
2022-12-25T07:53:47.878Z,36.23
2022-12-25T07:56:18.659Z,26.27
2022-12-25T07:58:48.668Z,25.30
2022-12-25T08:01:19.922Z,33.37
2022-12-25T08:03:53.512Z,23.40
2022-12-25T08:06:29.796Z,26.43
2022-12-25T08:09:03.100Z,25.23
2022-12-25T08:11:31.668Z,23.83
2022-12-25T08:14:00.451Z,27.07
2022-12-25T08:16:29.216Z,25.17
2022-12-25T08:18:57.950Z,28.60
2022-12-25T08:21:27.868Z,27.67
2022-12-25T08:23:56.551Z,24.13
2022-12-25T08:26:25.362Z,24.73
2022-12-25T08:28:54.136Z,22.13
2022-12-25T08:31:24.105Z,27.77
2022-12-25T08:33:54.530Z,28.20
2022-12-25T08:36:23.664Z,28.70
2022-12-25T08:39:02.139Z,29.33
2022-12-25T08:41:32.081Z,29.93
2022-12-25T08:44:00.870Z,33.57
2022-12-25T08:46:29.535Z,26.53
2022-12-25T08:48:58.388Z,25.30
2022-12-25T08:51:27.560Z,31.73
2022-12-25T08:54:01.272Z,27.70
2022-12-25T08:56:30.083Z,28.87
2022-12-25T08:58:58.805Z,30.90
2022-12-25T09:01:27.465Z,25.90
2022-12-25T09:03:56.437Z,24.27
2022-12-25T09:06:24.918Z,34.10
2022-12-25T09:08:53.656Z,22.23
2022-12-25T09:11:24.428Z,23.53
2022-12-25T09:13:53.196Z,28.40
2022-12-25T09:16:23.221Z,22.20
2022-12-25T09:18:52.374Z,25.97
2022-12-25T09:21:21.101Z,29.97
2022-12-25T09:23:50.081Z,22.90
2022-12-25T09:26:19.724Z,25.90
2022-12-25T09:28:52.355Z,29.37
2022-12-25T09:31:22.870Z,28.43
2022-12-25T09:33:52.303Z,27.67
2022-12-25T09:36:23.297Z,28.57
2022-12-25T09:38:52.733Z,29.57
2022-12-25T09:41:29.222Z,25.43
2022-12-25T09:44:04.939Z,29.17
2022-12-25T09:46:40.835Z,39.10
2022-12-25T09:49:19.931Z,70.80
2022-12-25T09:51:54.370Z,39.97
2022-12-25T09:54:28.537Z,29.13
2022-12-25T09:56:56.964Z,31.07
2022-12-25T09:59:28.508Z,27.47
2022-12-25T10:02:19.864Z,38.23
2022-12-25T10:05:05.300Z,35.83
2022-12-25T10:07:42.891Z,38.63
2022-12-25T10:10:32.566Z,33.30
2022-12-25T10:13:13.247Z,31.40
2022-12-25T10:15:51.907Z,31.63
2022-12-25T10:18:39.437Z,28.83
2022-12-25T10:21:14.002Z,33.40
2022-12-25T10:23:47.059Z,27.97
2022-12-25T10:26:18.522Z,32.73
2022-12-25T10:28:48.577Z,30.90
2022-12-25T10:31:24.181Z,28.63
2022-12-25T10:33:54.826Z,33.27
2022-12-25T10:36:25.999Z,33.30
2022-12-25T10:38:55.485Z,28.27
2022-12-25T10:41:39.651Z,31.20
2022-12-25T10:44:15.304Z,30.90
2022-12-25T10:46:49.807Z,34.57
2022-12-25T10:49:21.899Z,30.57
2022-12-25T10:51:51.000Z,28.47
2022-12-25T10:54:23.404Z,28.97
2022-12-25T10:56:57.407Z,26.07
2022-12-25T10:59:27.638Z,32.37
2022-12-25T11:02:05.134Z,31.73
2022-12-25T11:04:36.715Z,33.00
2022-12-25T11:07:08.793Z,34.27
2022-12-25T11:09:37.413Z,38.30
2022-12-25T11:12:06.815Z,31.77
2022-12-25T11:14:35.257Z,40.07
2022-12-25T11:17:10.757Z,34.53
2022-12-25T11:19:39.235Z,35.87
2022-12-25T11:22:19.565Z,27.50
2022-12-25T11:24:47.976Z,33.07
2022-12-25T11:27:24.427Z,35.43
2022-12-25T11:29:56.092Z,36.67
2022-12-25T11:32:30.743Z,34.60
2022-12-25T11:35:00.436Z,34.93
2022-12-25T11:37:35.134Z,35.17
2022-12-25T11:40:03.998Z,44.87
2022-12-25T11:42:36.584Z,39.37
2022-12-25T11:45:09.820Z,28.60
2022-12-25T11:47:43.218Z,43.70
2022-12-25T11:50:28.370Z,46.47
2022-12-25T11:52:59.198Z,39.13
2022-12-25T11:55:35.014Z,28.83
2022-12-25T11:58:07.596Z,34.80
2022-12-25T12:00:37.103Z,39.47
2022-12-25T12:03:15.499Z,36.93
2022-12-25T12:05:47.025Z,34.17
2022-12-25T12:08:15.785Z,39.57
2022-12-25T12:11:15.640Z,39.40
2022-12-25T12:14:07.466Z,34.87
2022-12-25T12:16:36.665Z,38.97
2022-12-25T12:19:14.690Z,34.97
2022-12-25T12:21:44.185Z,40.67
2022-12-25T12:24:17.598Z,35.53
2022-12-25T12:26:47.749Z,34.10
2022-12-25T12:29:26.999Z,37.57
2022-12-25T12:31:58.389Z,40.27
2022-12-25T12:34:31.541Z,46.90
2022-12-25T12:37:05.143Z,49.67
2022-12-25T12:39:37.785Z,37.03
2022-12-25T12:42:14.542Z,46.63
2022-12-25T12:44:43.591Z,40.87
2022-12-25T12:47:31.305Z,41.20
2022-12-25T12:50:02.577Z,44.77
2022-12-25T12:52:37.055Z,45.07
2022-12-25T12:55:07.812Z,46.53
2022-12-25T12:57:39.810Z,40.13
2022-12-25T13:00:16.864Z,47.63
2022-12-25T13:03:15.023Z,36.97
2022-12-25T13:05:49.958Z,44.00
2022-12-25T13:08:33.270Z,41.17
2022-12-25T13:11:11.086Z,41.03
2022-12-25T13:13:43.094Z,43.97
2022-12-25T13:16:26.435Z,31.90
2022-12-25T13:18:57.062Z,43.27
2022-12-25T13:21:29.130Z,42.27
2022-12-25T13:23:59.293Z,44.43
2022-12-25T13:26:28.657Z,41.80
2022-12-25T13:28:57.298Z,41.63
2022-12-25T13:31:27.709Z,38.90
2022-12-25T13:33:59.696Z,45.97
2022-12-25T13:36:36.080Z,41.87
2022-12-25T13:39:08.718Z,50.80
2022-12-25T13:42:01.663Z,41.23
2022-12-25T13:44:32.591Z,48.70
2022-12-25T13:47:10.108Z,48.80
2022-12-25T13:49:38.662Z,49.60
2022-12-25T13:52:14.577Z,45.97
2022-12-25T13:54:54.432Z,48.63
2022-12-25T13:57:27.999Z,52.53
2022-12-25T13:59:56.872Z,45.80
2022-12-25T14:02:30.793Z,46.63
2022-12-25T14:04:59.562Z,46.67
2022-12-25T14:07:29.981Z,50.83
2022-12-25T14:10:01.321Z,46.53
2022-12-25T14:12:32.683Z,47.60
2022-12-25T14:15:02.139Z,51.20
2022-12-25T14:17:31.015Z,52.30
2022-12-25T14:20:07.901Z,45.43
2022-12-25T14:22:38.676Z,38.63
2022-12-25T14:25:16.415Z,38.00
2022-12-25T14:27:50.606Z,47.70
2022-12-25T14:30:19.534Z,34.67
2022-12-25T14:32:51.840Z,42.30
2022-12-25T14:35:23.519Z,42.03
2022-12-25T14:38:01.053Z,38.90
2022-12-25T14:40:31.526Z,34.43
2022-12-25T14:43:02.253Z,40.20
2022-12-25T14:45:33.195Z,45.20
2022-12-25T14:48:04.336Z,43.87
2022-12-25T14:50:36.395Z,45.83
2022-12-25T14:53:17.760Z,51.07
2022-12-25T14:55:49.400Z,43.73
2022-12-25T14:58:26.737Z,53.50
2022-12-25T15:00:57.295Z,41.40
2022-12-25T15:03:30.435Z,41.97
2022-12-25T15:06:01.324Z,48.43
2022-12-25T15:08:33.532Z,44.50
2022-12-25T15:11:03.397Z,42.00
2022-12-25T15:13:34.285Z,44.60
2022-12-25T15:16:07.345Z,50.80
2022-12-25T15:18:40.613Z,36.57
2022-12-25T15:21:16.337Z,51.37
2022-12-25T15:23:46.516Z,43.20
2022-12-25T15:26:15.981Z,44.23
2022-12-25T15:28:44.865Z,46.20
2022-12-25T15:31:22.944Z,45.00
2022-12-25T15:33:52.121Z,41.07
2022-12-25T15:36:21.027Z,42.40
2022-12-25T15:38:51.764Z,50.73
2022-12-25T15:41:36.867Z,50.47
2022-12-25T15:44:06.994Z,48.97
2022-12-25T15:46:36.276Z,45.23
2022-12-25T15:49:05.580Z,47.60
2022-12-25T15:51:34.321Z,51.63
2022-12-25T15:54:04.693Z,40.10
2022-12-25T15:56:41.788Z,43.97
2022-12-25T15:59:12.466Z,41.53
2022-12-25T16:01:43.175Z,42.60
2022-12-25T16:04:12.141Z,35.40
2022-12-25T16:06:40.584Z,42.60
2022-12-25T16:09:12.110Z,39.23
2022-12-25T16:11:41.312Z,40.53
2022-12-25T16:14:10.274Z,42.93
2022-12-25T16:16:39.101Z,45.23
2022-12-25T16:19:08.367Z,45.20
2022-12-25T16:21:40.343Z,46.37
2022-12-25T16:24:10.707Z,49.50
2022-12-25T16:26:39.253Z,48.43
2022-12-25T16:29:08.200Z,50.13
2022-12-25T16:31:37.426Z,48.87
2022-12-25T16:34:07.945Z,50.93
2022-12-25T16:36:37.128Z,42.53
2022-12-25T16:39:06.663Z,46.87
2022-12-25T16:41:36.650Z,50.77
2022-12-25T16:44:09.487Z,51.50
2022-12-25T16:46:40.930Z,61.17
2022-12-25T16:49:09.818Z,58.17
2022-12-25T16:51:38.318Z,54.17
2022-12-25T16:54:07.178Z,63.30
2022-12-25T16:56:37.203Z,76.73
2022-12-25T16:59:05.968Z,63.63
2022-12-25T17:01:34.641Z,64.50
2022-12-25T17:04:03.686Z,63.40
2022-12-25T17:06:32.954Z,72.37
2022-12-25T17:09:03.624Z,64.50
2022-12-25T17:11:32.815Z,70.13
2022-12-25T17:14:04.561Z,62.13
2022-12-25T17:16:34.887Z,75.80
2022-12-25T17:19:08.133Z,69.23
2022-12-25T17:21:38.159Z,75.67
2022-12-25T17:24:07.956Z,70.93
2022-12-25T17:26:36.549Z,69.47
2022-12-25T17:29:06.617Z,61.73
2022-12-25T17:31:35.781Z,78.10
2022-12-25T17:34:06.005Z,66.03
2022-12-25T17:36:34.557Z,71.33
2022-12-25T17:39:05.407Z,65.73
2022-12-25T17:41:34.508Z,69.63
2022-12-25T17:44:03.365Z,68.50
2022-12-25T17:46:34.064Z,72.83
2022-12-25T17:49:03.747Z,70.20
2022-12-25T17:51:32.929Z,70.33
2022-12-25T17:54:04.122Z,77.03
2022-12-25T17:56:33.569Z,79.07
2022-12-25T17:59:06.643Z,72.33
2022-12-25T18:01:38.415Z,75.33
2022-12-25T18:04:08.206Z,74.23
2022-12-25T18:06:38.150Z,69.73
2022-12-25T18:09:07.884Z,77.80
2022-12-25T18:11:40.313Z,84.33
2022-12-25T18:14:12.172Z,64.13
2022-12-25T18:16:44.216Z,75.40
2022-12-25T18:19:15.024Z,76.23
2022-12-25T18:21:43.711Z,72.20
2022-12-25T18:24:13.148Z,72.20
2022-12-25T18:26:41.628Z,71.60
2022-12-25T18:29:10.355Z,79.67
2022-12-25T18:31:39.044Z,85.73
2022-12-25T18:34:09.198Z,75.17
2022-12-25T18:36:38.026Z,68.07
2022-12-25T18:39:06.841Z,72.57
2022-12-25T18:41:55.362Z,65.03
2022-12-25T18:44:38.998Z,68.83
2022-12-25T18:47:07.654Z,68.20
2022-12-25T18:49:38.034Z,75.33
2022-12-25T18:52:49.079Z,63.07
2022-12-25T18:54:56.879Z,76.03
2022-12-25T18:57:25.829Z,65.60
2022-12-25T18:59:54.658Z,60.07
2022-12-25T19:02:23.275Z,69.93
2022-12-25T19:04:53.606Z,64.97
2022-12-25T19:07:23.431Z,56.27
2022-12-25T19:09:52.307Z,64.37
2022-12-25T19:12:20.812Z,64.03
2022-12-25T19:14:49.785Z,55.80
2022-12-25T19:17:19.050Z,67.10
2022-12-25T19:19:48.041Z,64.77
2022-12-25T19:22:17.936Z,64.73
2022-12-25T19:24:46.732Z,64.93
2022-12-25T19:27:15.206Z,55.77
2022-12-25T19:29:44.175Z,53.73
2022-12-25T19:32:12.748Z,62.00
2022-12-25T19:34:41.582Z,55.20
2022-12-25T19:37:10.049Z,64.50
2022-12-25T19:39:46.013Z,59.27
2022-12-25T19:42:14.824Z,56.77
2022-12-25T19:44:43.981Z,62.73
2022-12-25T19:47:12.584Z,56.37
2022-12-25T19:49:43.730Z,50.60
2022-12-25T19:52:14.345Z,55.43
2022-12-25T19:54:44.521Z,56.53
2022-12-25T19:57:13.104Z,59.63
2022-12-25T19:59:41.954Z,59.00
2022-12-25T20:02:11.099Z,53.23
2022-12-25T20:04:39.875Z,53.03
2022-12-25T20:07:08.341Z,62.50
2022-12-25T20:09:37.088Z,115.83
2022-12-25T20:12:09.119Z,66.53
2022-12-25T20:14:39.796Z,60.47
2022-12-25T20:17:15.375Z,61.37
2022-12-25T20:19:44.694Z,56.90
2022-12-25T20:22:13.329Z,64.30
2022-12-25T20:24:42.056Z,59.60
2022-12-25T20:27:11.939Z,52.30
2022-12-25T20:29:41.037Z,61.97
2022-12-25T20:32:09.836Z,68.47
2022-12-25T20:34:38.731Z,56.47
2022-12-25T20:37:07.295Z,55.93
2022-12-25T20:39:36.374Z,78.40
2022-12-25T20:42:06.112Z,93.57
2022-12-25T20:44:36.307Z,83.83
2022-12-25T20:47:04.861Z,81.33
2022-12-25T20:49:34.725Z,76.83
2022-12-25T20:52:05.825Z,65.00
2022-12-25T20:54:35.604Z,79.00
2022-12-25T20:57:04.156Z,70.17
2022-12-25T20:59:37.394Z,71.63
2022-12-25T21:02:08.266Z,80.23
2022-12-25T21:04:56.933Z,65.57
2022-12-25T21:07:25.481Z,67.80
2022-12-25T21:09:54.470Z,71.97
2022-12-25T21:12:23.108Z,66.53
2022-12-25T21:14:52.167Z,62.23
2022-12-25T21:17:22.033Z,66.87
2022-12-25T21:19:51.363Z,63.73
2022-12-25T21:22:19.861Z,71.40
2022-12-25T21:24:51.932Z,71.40
2022-12-25T21:27:20.526Z,73.87
2022-12-25T21:29:49.222Z,76.03
2022-12-25T21:32:35.348Z,75.07
2022-12-25T21:35:06.018Z,75.93
2022-12-25T21:37:34.486Z,62.93
2022-12-25T21:40:03.503Z,84.00
2022-12-25T21:42:31.949Z,77.03
2022-12-25T21:45:00.752Z,75.00
2022-12-25T21:48:00.323Z,61.93
2022-12-25T21:50:39.346Z,68.83
2022-12-25T21:53:08.681Z,73.30
2022-12-25T21:55:37.926Z,87.10
2022-12-25T21:58:06.405Z,71.97
2022-12-25T22:00:35.234Z,84.80
2022-12-25T22:03:03.844Z,81.90
2022-12-25T22:05:54.807Z,84.77
2022-12-25T22:08:23.366Z,91.23
2022-12-25T22:10:52.033Z,82.77
2022-12-25T22:13:37.848Z,85.80
2022-12-25T22:16:24.866Z,82.13
2022-12-25T22:19:10.539Z,85.60
2022-12-25T22:21:41.990Z,75.67
2022-12-25T22:24:10.824Z,97.43
2022-12-25T22:26:39.498Z,95.20
2022-12-25T22:29:07.994Z,77.93
2022-12-25T22:31:40.925Z,91.43
2022-12-25T22:34:16.506Z,89.47
2022-12-25T22:36:48.997Z,76.23
2022-12-25T22:39:17.678Z,78.00
2022-12-25T22:41:48.037Z,72.27
2022-12-25T22:44:17.992Z,76.50
2022-12-25T22:46:47.136Z,85.80
2022-12-25T22:49:16.509Z,77.53
2022-12-25T22:51:47.878Z,79.77
2022-12-25T22:54:17.265Z,65.10
2022-12-25T22:56:48.415Z,70.80
2022-12-25T22:59:18.379Z,77.37
2022-12-25T23:01:47.503Z,69.03
2022-12-25T23:04:16.078Z,70.43
2022-12-25T23:06:46.550Z,73.10
2022-12-25T23:09:22.244Z,77.40
2022-12-25T23:11:52.852Z,73.50
2022-12-25T23:14:38.709Z,67.67
2022-12-25T23:17:29.076Z,66.83
2022-12-25T23:20:16.381Z,66.60
2022-12-25T23:23:04.399Z,55.30
2022-12-25T23:25:49.920Z,63.07
2022-12-25T23:28:39.552Z,79.50
2022-12-25T23:31:07.446Z,65.30
2022-12-25T23:33:36.214Z,75.93
2022-12-25T23:36:04.944Z,64.60
2022-12-25T23:38:34.988Z,66.30
2022-12-25T23:41:03.486Z,77.43
2022-12-25T23:43:32.639Z,72.13
2022-12-25T23:46:01.156Z,80.47
2022-12-25T23:48:30.043Z,66.30
2022-12-25T23:51:03.232Z,55.20
2022-12-25T23:53:32.098Z,54.13
2022-12-25T23:56:02.074Z,57.23
2022-12-25T23:58:30.993Z,63.40
